sensor_id;sensor_type;location;lat;lon;timestamp;P1;durP1;ratioP1;P2;durP2;ratioP2
49029;SDS011;43337;52.070;4.508;2022-11-20T00:01:59;19.33;;;8.20;;
49029;SDS011;43337;52.070;4.508;2022-11-20T00:04:24;19.20;;;8.00;;
49029;SDS011;43337;52.070;4.508;2022-11-20T00:06:50;21.58;;;8.93;;
49029;SDS011;43337;52.070;4.508;2022-11-20T00:09:15;17.23;;;7.78;;
49029;SDS011;43337;52.070;4.508;2022-11-20T00:11:40;19.75;;;8.32;;
49029;SDS011;43337;52.070;4.508;2022-11-20T00:14:06;23.88;;;9.18;;
49029;SDS011;43337;52.070;4.508;2022-11-20T00:16:31;20.08;;;9.02;;
49029;SDS011;43337;52.070;4.508;2022-11-20T00:18:58;23.48;;;8.68;;
49029;SDS011;43337;52.070;4.508;2022-11-20T00:21:24;17.35;;;8.13;;
49029;SDS011;43337;52.070;4.508;2022-11-20T00:23:52;24.77;;;8.40;;
49029;SDS011;43337;52.070;4.508;2022-11-20T00:26:19;17.85;;;8.40;;
49029;SDS011;43337;52.070;4.508;2022-11-20T00:28:51;20.73;;;8.52;;
49029;SDS011;43337;52.070;4.508;2022-11-20T00:31:21;17.70;;;7.30;;
49029;SDS011;43337;52.070;4.508;2022-11-20T00:33:46;19.10;;;8.70;;
49029;SDS011;43337;52.070;4.508;2022-11-20T00:36:16;20.65;;;8.57;;
49029;SDS011;43337;52.070;4.508;2022-11-20T00:38:43;17.63;;;7.85;;
49029;SDS011;43337;52.070;4.508;2022-11-20T00:41:09;17.15;;;7.82;;
49029;SDS011;43337;52.070;4.508;2022-11-20T00:43:36;19.08;;;8.80;;
49029;SDS011;43337;52.070;4.508;2022-11-20T00:46:04;16.70;;;7.78;;
49029;SDS011;43337;52.070;4.508;2022-11-20T00:48:34;21.15;;;8.25;;
49029;SDS011;43337;52.070;4.508;2022-11-20T00:50:59;21.63;;;9.07;;
49029;SDS011;43337;52.070;4.508;2022-11-20T00:53:25;21.20;;;8.40;;
49029;SDS011;43337;52.070;4.508;2022-11-20T00:55:57;21.52;;;9.35;;
49029;SDS011;43337;52.070;4.508;2022-11-20T00:58:24;22.60;;;9.27;;
49029;SDS011;43337;52.070;4.508;2022-11-20T01:00:53;25.77;;;11.07;;
49029;SDS011;43337;52.070;4.508;2022-11-20T01:03:25;21.05;;;8.40;;
49029;SDS011;43337;52.070;4.508;2022-11-20T01:05:51;20.35;;;9.38;;
49029;SDS011;43337;52.070;4.508;2022-11-20T01:08:16;20.35;;;8.68;;
49029;SDS011;43337;52.070;4.508;2022-11-20T01:10:42;20.73;;;9.13;;
49029;SDS011;43337;52.070;4.508;2022-11-20T01:13:07;25.55;;;9.05;;
49029;SDS011;43337;52.070;4.508;2022-11-20T01:15:51;20.42;;;8.77;;
49029;SDS011;43337;52.070;4.508;2022-11-20T01:18:17;20.70;;;8.27;;
49029;SDS011;43337;52.070;4.508;2022-11-20T01:20:42;17.77;;;8.13;;
49029;SDS011;43337;52.070;4.508;2022-11-20T01:23:07;22.65;;;9.80;;
49029;SDS011;43337;52.070;4.508;2022-11-20T01:25:33;21.55;;;8.52;;
49029;SDS011;43337;52.070;4.508;2022-11-20T01:27:59;22.67;;;9.15;;
49029;SDS011;43337;52.070;4.508;2022-11-20T01:30:24;18.75;;;8.35;;
49029;SDS011;43337;52.070;4.508;2022-11-20T01:32:49;20.85;;;8.65;;
49029;SDS011;43337;52.070;4.508;2022-11-20T01:35:15;22.75;;;8.25;;
49029;SDS011;43337;52.070;4.508;2022-11-20T01:37:40;21.23;;;8.57;;
49029;SDS011;43337;52.070;4.508;2022-11-20T01:40:05;21.33;;;8.90;;
49029;SDS011;43337;52.070;4.508;2022-11-20T01:42:31;22.30;;;8.57;;
49029;SDS011;43337;52.070;4.508;2022-11-20T01:48:23;19.60;;;8.55;;
49029;SDS011;43337;52.070;4.508;2022-11-20T01:50:53;21.42;;;7.70;;
49029;SDS011;43337;52.070;4.508;2022-11-20T01:53:20;21.60;;;8.85;;
49029;SDS011;43337;52.070;4.508;2022-11-20T01:55:49;18.35;;;8.40;;
49029;SDS011;43337;52.070;4.508;2022-11-20T01:58:26;20.20;;;9.40;;
49029;SDS011;43337;52.070;4.508;2022-11-20T02:00:55;22.10;;;10.15;;
49029;SDS011;43337;52.070;4.508;2022-11-20T02:03:21;24.55;;;9.88;;
49029;SDS011;43337;52.070;4.508;2022-11-20T02:06:04;21.23;;;8.68;;
49029;SDS011;43337;52.070;4.508;2022-11-20T02:08:40;19.88;;;8.13;;
49029;SDS011;43337;52.070;4.508;2022-11-20T02:11:05;20.33;;;8.75;;
49029;SDS011;43337;52.070;4.508;2022-11-20T02:13:31;19.10;;;8.40;;
49029;SDS011;43337;52.070;4.508;2022-11-20T02:16:15;18.60;;;8.40;;
49029;SDS011;43337;52.070;4.508;2022-11-20T02:18:46;25.40;;;10.13;;
49029;SDS011;43337;52.070;4.508;2022-11-20T02:21:21;21.50;;;9.50;;
49029;SDS011;43337;52.070;4.508;2022-11-20T02:26:50;18.67;;;9.27;;
49029;SDS011;43337;52.070;4.508;2022-11-20T02:29:51;23.42;;;9.85;;
49029;SDS011;43337;52.070;4.508;2022-11-20T02:32:26;21.85;;;9.95;;
49029;SDS011;43337;52.070;4.508;2022-11-20T02:34:52;26.77;;;9.65;;
49029;SDS011;43337;52.070;4.508;2022-11-20T02:37:18;20.80;;;9.75;;
49029;SDS011;43337;52.070;4.508;2022-11-20T02:39:45;20.80;;;8.90;;
49029;SDS011;43337;52.070;4.508;2022-11-20T02:42:12;22.92;;;9.48;;
49029;SDS011;43337;52.070;4.508;2022-11-20T02:44:38;24.00;;;9.68;;
49029;SDS011;43337;52.070;4.508;2022-11-20T02:47:03;25.02;;;9.82;;
49029;SDS011;43337;52.070;4.508;2022-11-20T02:49:28;21.77;;;8.57;;
49029;SDS011;43337;52.070;4.508;2022-11-20T02:51:54;23.25;;;8.52;;
49029;SDS011;43337;52.070;4.508;2022-11-20T02:54:19;21.05;;;9.18;;
49029;SDS011;43337;52.070;4.508;2022-11-20T02:56:44;18.90;;;8.80;;
49029;SDS011;43337;52.070;4.508;2022-11-20T02:59:10;20.48;;;9.38;;
49029;SDS011;43337;52.070;4.508;2022-11-20T03:01:35;23.88;;;10.15;;
49029;SDS011;43337;52.070;4.508;2022-11-20T03:04:01;23.40;;;10.10;;
49029;SDS011;43337;52.070;4.508;2022-11-20T03:06:26;19.63;;;8.68;;
49029;SDS011;43337;52.070;4.508;2022-11-20T03:08:51;21.23;;;9.45;;
49029;SDS011;43337;52.070;4.508;2022-11-20T03:11:16;23.98;;;9.48;;
49029;SDS011;43337;52.070;4.508;2022-11-20T03:13:42;20.70;;;8.98;;
49029;SDS011;43337;52.070;4.508;2022-11-20T03:16:11;22.50;;;9.60;;
49029;SDS011;43337;52.070;4.508;2022-11-20T03:18:39;23.23;;;9.65;;
49029;SDS011;43337;52.070;4.508;2022-11-20T03:21:05;21.00;;;8.93;;
49029;SDS011;43337;52.070;4.508;2022-11-20T03:23:31;23.77;;;8.80;;
49029;SDS011;43337;52.070;4.508;2022-11-20T03:26:07;22.98;;;9.70;;
49029;SDS011;43337;52.070;4.508;2022-11-20T03:28:33;24.83;;;9.75;;
49029;SDS011;43337;52.070;4.508;2022-11-20T03:31:04;22.90;;;10.40;;
49029;SDS011;43337;52.070;4.508;2022-11-20T03:33:30;25.00;;;9.93;;
49029;SDS011;43337;52.070;4.508;2022-11-20T03:36:00;24.20;;;9.55;;
49029;SDS011;43337;52.070;4.508;2022-11-20T03:38:28;23.67;;;10.60;;
49029;SDS011;43337;52.070;4.508;2022-11-20T03:40:57;23.20;;;10.80;;
49029;SDS011;43337;52.070;4.508;2022-11-20T03:43:24;23.48;;;9.30;;
49029;SDS011;43337;52.070;4.508;2022-11-20T03:45:49;23.40;;;10.00;;
49029;SDS011;43337;52.070;4.508;2022-11-20T03:48:15;21.58;;;9.20;;
49029;SDS011;43337;52.070;4.508;2022-11-20T03:50:40;23.10;;;10.15;;
49029;SDS011;43337;52.070;4.508;2022-11-20T03:53:05;22.85;;;9.65;;
49029;SDS011;43337;52.070;4.508;2022-11-20T03:55:31;20.90;;;8.70;;
49029;SDS011;43337;52.070;4.508;2022-11-20T03:57:56;24.80;;;10.20;;
49029;SDS011;43337;52.070;4.508;2022-11-20T04:00:21;23.77;;;9.07;;
49029;SDS011;43337;52.070;4.508;2022-11-20T04:02:47;24.10;;;10.10;;
49029;SDS011;43337;52.070;4.508;2022-11-20T04:05:12;22.17;;;9.45;;
49029;SDS011;43337;52.070;4.508;2022-11-20T04:07:37;24.23;;;9.70;;
49029;SDS011;43337;52.070;4.508;2022-11-20T04:10:03;20.58;;;9.05;;
49029;SDS011;43337;52.070;4.508;2022-11-20T04:12:31;26.02;;;9.73;;
49029;SDS011;43337;52.070;4.508;2022-11-20T04:14:57;29.20;;;10.73;;
49029;SDS011;43337;52.070;4.508;2022-11-20T04:17:22;22.55;;;9.45;;
49029;SDS011;43337;52.070;4.508;2022-11-20T04:19:47;20.77;;;9.48;;
49029;SDS011;43337;52.070;4.508;2022-11-20T04:22:13;21.85;;;9.52;;
49029;SDS011;43337;52.070;4.508;2022-11-20T04:24:38;20.95;;;9.38;;
49029;SDS011;43337;52.070;4.508;2022-11-20T04:27:03;26.70;;;10.05;;
49029;SDS011;43337;52.070;4.508;2022-11-20T04:29:29;26.30;;;10.57;;
49029;SDS011;43337;52.070;4.508;2022-11-20T04:31:54;21.50;;;8.88;;
49029;SDS011;43337;52.070;4.508;2022-11-20T04:34:19;22.17;;;9.30;;
49029;SDS011;43337;52.070;4.508;2022-11-20T04:36:45;21.98;;;9.32;;
49029;SDS011;43337;52.070;4.508;2022-11-20T04:39:11;26.45;;;9.75;;
49029;SDS011;43337;52.070;4.508;2022-11-20T04:41:39;21.77;;;9.98;;
49029;SDS011;43337;52.070;4.508;2022-11-20T04:44:05;24.98;;;9.95;;
49029;SDS011;43337;52.070;4.508;2022-11-20T04:46:31;26.38;;;9.70;;
49029;SDS011;43337;52.070;4.508;2022-11-20T04:48:58;23.10;;;9.88;;
49029;SDS011;43337;52.070;4.508;2022-11-20T04:51:24;25.83;;;10.27;;
49029;SDS011;43337;52.070;4.508;2022-11-20T04:53:50;24.50;;;10.63;;
49029;SDS011;43337;52.070;4.508;2022-11-20T04:56:15;21.05;;;9.13;;
49029;SDS011;43337;52.070;4.508;2022-11-20T04:58:41;27.17;;;10.05;;
49029;SDS011;43337;52.070;4.508;2022-11-20T05:01:10;25.80;;;10.57;;
49029;SDS011;43337;52.070;4.508;2022-11-20T05:03:38;21.52;;;9.18;;
49029;SDS011;43337;52.070;4.508;2022-11-20T05:06:05;25.88;;;9.40;;
49029;SDS011;43337;52.070;4.508;2022-11-20T05:08:32;25.92;;;10.38;;
49029;SDS011;43337;52.070;4.508;2022-11-20T05:11:05;26.77;;;10.52;;
49029;SDS011;43337;52.070;4.508;2022-11-20T05:13:35;25.02;;;10.00;;
49029;SDS011;43337;52.070;4.508;2022-11-20T05:16:05;23.70;;;10.35;;
49029;SDS011;43337;52.070;4.508;2022-11-20T05:18:35;26.53;;;10.83;;
49029;SDS011;43337;52.070;4.508;2022-11-20T05:21:02;25.77;;;10.23;;
49029;SDS011;43337;52.070;4.508;2022-11-20T05:23:29;25.45;;;10.80;;
49029;SDS011;43337;52.070;4.508;2022-11-20T05:25:56;21.92;;;9.85;;
49029;SDS011;43337;52.070;4.508;2022-11-20T05:28:22;20.85;;;9.02;;
49029;SDS011;43337;52.070;4.508;2022-11-20T05:30:48;27.65;;;10.93;;
49029;SDS011;43337;52.070;4.508;2022-11-20T05:33:14;26.17;;;10.32;;
49029;SDS011;43337;52.070;4.508;2022-11-20T05:35:39;26.60;;;10.38;;
49029;SDS011;43337;52.070;4.508;2022-11-20T05:38:05;25.90;;;11.00;;
49029;SDS011;43337;52.070;4.508;2022-11-20T05:40:30;27.63;;;10.60;;
49029;SDS011;43337;52.070;4.508;2022-11-20T05:42:55;23.30;;;9.68;;
49029;SDS011;43337;52.070;4.508;2022-11-20T05:45:21;23.55;;;10.50;;
49029;SDS011;43337;52.070;4.508;2022-11-20T05:47:46;22.70;;;9.57;;
49029;SDS011;43337;52.070;4.508;2022-11-20T05:50:12;24.27;;;10.05;;
49029;SDS011;43337;52.070;4.508;2022-11-20T05:52:38;27.95;;;11.10;;
49029;SDS011;43337;52.070;4.508;2022-11-20T05:55:03;23.25;;;10.18;;
49029;SDS011;43337;52.070;4.508;2022-11-20T05:57:29;23.95;;;10.73;;
49029;SDS011;43337;52.070;4.508;2022-11-20T05:59:55;22.70;;;10.45;;
49029;SDS011;43337;52.070;4.508;2022-11-20T06:02:21;20.27;;;9.07;;
49029;SDS011;43337;52.070;4.508;2022-11-20T06:04:46;25.52;;;11.63;;
49029;SDS011;43337;52.070;4.508;2022-11-20T06:07:12;24.77;;;10.73;;
49029;SDS011;43337;52.070;4.508;2022-11-20T06:09:37;26.23;;;10.77;;
49029;SDS011;43337;52.070;4.508;2022-11-20T06:12:02;27.45;;;10.57;;
49029;SDS011;43337;52.070;4.508;2022-11-20T06:14:28;24.60;;;11.07;;
49029;SDS011;43337;52.070;4.508;2022-11-20T06:16:53;27.92;;;11.55;;
49029;SDS011;43337;52.070;4.508;2022-11-20T06:19:19;24.88;;;10.65;;
49029;SDS011;43337;52.070;4.508;2022-11-20T06:21:44;26.60;;;11.60;;
49029;SDS011;43337;52.070;4.508;2022-11-20T06:24:10;23.02;;;10.75;;
49029;SDS011;43337;52.070;4.508;2022-11-20T06:26:35;23.63;;;11.13;;
49029;SDS011;43337;52.070;4.508;2022-11-20T06:29:01;28.55;;;10.73;;
49029;SDS011;43337;52.070;4.508;2022-11-20T06:31:26;28.38;;;11.52;;
49029;SDS011;43337;52.070;4.508;2022-11-20T06:33:52;24.77;;;10.60;;
49029;SDS011;43337;52.070;4.508;2022-11-20T06:36:18;25.58;;;10.52;;
49029;SDS011;43337;52.070;4.508;2022-11-20T06:38:45;32.10;;;11.27;;
49029;SDS011;43337;52.070;4.508;2022-11-20T06:41:12;27.75;;;11.30;;
49029;SDS011;43337;52.070;4.508;2022-11-20T06:43:39;29.15;;;11.43;;
49029;SDS011;43337;52.070;4.508;2022-11-20T06:46:04;30.80;;;10.40;;
49029;SDS011;43337;52.070;4.508;2022-11-20T06:48:30;26.15;;;11.50;;
49029;SDS011;43337;52.070;4.508;2022-11-20T06:50:56;29.40;;;11.93;;
49029;SDS011;43337;52.070;4.508;2022-11-20T06:53:22;23.73;;;10.00;;
49029;SDS011;43337;52.070;4.508;2022-11-20T06:55:48;25.85;;;10.90;;
49029;SDS011;43337;52.070;4.508;2022-11-20T06:58:15;28.58;;;11.75;;
49029;SDS011;43337;52.070;4.508;2022-11-20T07:00:41;26.92;;;11.10;;
49029;SDS011;43337;52.070;4.508;2022-11-20T07:03:07;27.48;;;10.75;;
49029;SDS011;43337;52.070;4.508;2022-11-20T07:05:34;25.42;;;11.07;;
49029;SDS011;43337;52.070;4.508;2022-11-20T07:08:00;27.05;;;10.32;;
49029;SDS011;43337;52.070;4.508;2022-11-20T07:10:26;27.15;;;10.85;;
49029;SDS011;43337;52.070;4.508;2022-11-20T07:12:52;25.75;;;12.15;;
49029;SDS011;43337;52.070;4.508;2022-11-20T07:15:19;25.90;;;11.27;;
49029;SDS011;43337;52.070;4.508;2022-11-20T07:17:45;27.42;;;11.63;;
49029;SDS011;43337;52.070;4.508;2022-11-20T07:20:11;26.40;;;10.93;;
49029;SDS011;43337;52.070;4.508;2022-11-20T07:22:37;26.73;;;11.70;;
49029;SDS011;43337;52.070;4.508;2022-11-20T07:25:03;27.83;;;10.27;;
49029;SDS011;43337;52.070;4.508;2022-11-20T07:27:29;25.88;;;10.80;;
49029;SDS011;43337;52.070;4.508;2022-11-20T07:29:55;28.33;;;11.40;;
49029;SDS011;43337;52.070;4.508;2022-11-20T07:32:20;26.70;;;10.63;;
49029;SDS011;43337;52.070;4.508;2022-11-20T07:34:46;26.73;;;11.25;;
49029;SDS011;43337;52.070;4.508;2022-11-20T07:37:11;24.75;;;11.05;;
49029;SDS011;43337;52.070;4.508;2022-11-20T07:39:37;27.00;;;12.05;;
49029;SDS011;43337;52.070;4.508;2022-11-20T07:42:02;27.45;;;11.70;;
49029;SDS011;43337;52.070;4.508;2022-11-20T07:44:28;28.48;;;12.27;;
49029;SDS011;43337;52.070;4.508;2022-11-20T07:46:53;25.50;;;11.55;;
49029;SDS011;43337;52.070;4.508;2022-11-20T07:49:18;25.30;;;11.35;;
49029;SDS011;43337;52.070;4.508;2022-11-20T07:51:43;25.88;;;11.77;;
49029;SDS011;43337;52.070;4.508;2022-11-20T07:54:09;24.45;;;10.85;;
49029;SDS011;43337;52.070;4.508;2022-11-20T07:56:34;24.63;;;10.48;;
49029;SDS011;43337;52.070;4.508;2022-11-20T07:59:00;28.20;;;11.75;;
49029;SDS011;43337;52.070;4.508;2022-11-20T08:01:25;28.70;;;10.85;;
49029;SDS011;43337;52.070;4.508;2022-11-20T08:03:50;23.92;;;11.27;;
49029;SDS011;43337;52.070;4.508;2022-11-20T08:06:16;28.05;;;11.77;;
49029;SDS011;43337;52.070;4.508;2022-11-20T08:08:42;26.70;;;11.25;;
49029;SDS011;43337;52.070;4.508;2022-11-20T08:11:07;26.52;;;11.93;;
49029;SDS011;43337;52.070;4.508;2022-11-20T08:13:51;25.08;;;10.80;;
49029;SDS011;43337;52.070;4.508;2022-11-20T08:16:35;25.52;;;11.57;;
49029;SDS011;43337;52.070;4.508;2022-11-20T08:19:01;25.83;;;11.50;;
49029;SDS011;43337;52.070;4.508;2022-11-20T08:21:26;25.40;;;11.18;;
49029;SDS011;43337;52.070;4.508;2022-11-20T08:23:51;26.60;;;11.77;;
49029;SDS011;43337;52.070;4.508;2022-11-20T08:26:17;29.98;;;12.02;;
49029;SDS011;43337;52.070;4.508;2022-11-20T08:28:42;25.80;;;12.27;;
49029;SDS011;43337;52.070;4.508;2022-11-20T08:31:09;25.20;;;10.70;;
49029;SDS011;43337;52.070;4.508;2022-11-20T08:33:34;25.98;;;11.10;;
49029;SDS011;43337;52.070;4.508;2022-11-20T08:36:01;27.13;;;11.52;;
49029;SDS011;43337;52.070;4.508;2022-11-20T08:38:28;25.90;;;11.70;;
49029;SDS011;43337;52.070;4.508;2022-11-20T08:40:57;29.60;;;13.25;;
49029;SDS011;43337;52.070;4.508;2022-11-20T08:43:42;26.70;;;12.82;;
49029;SDS011;43337;52.070;4.508;2022-11-20T08:46:07;27.77;;;11.95;;
49029;SDS011;43337;52.070;4.508;2022-11-20T08:48:32;27.05;;;12.38;;
49029;SDS011;43337;52.070;4.508;2022-11-20T08:50:58;29.77;;;12.20;;
49029;SDS011;43337;52.070;4.508;2022-11-20T08:53:24;28.05;;;11.13;;
49029;SDS011;43337;52.070;4.508;2022-11-20T08:55:50;27.95;;;12.07;;
49029;SDS011;43337;52.070;4.508;2022-11-20T08:58:15;28.63;;;12.93;;
49029;SDS011;43337;52.070;4.508;2022-11-20T09:00:40;24.67;;;11.25;;
49029;SDS011;43337;52.070;4.508;2022-11-20T09:03:06;27.30;;;11.60;;
49029;SDS011;43337;52.070;4.508;2022-11-20T09:05:31;26.33;;;12.13;;
49029;SDS011;43337;52.070;4.508;2022-11-20T09:07:57;29.08;;;12.38;;
49029;SDS011;43337;52.070;4.508;2022-11-20T09:10:23;26.98;;;11.95;;
49029;SDS011;43337;52.070;4.508;2022-11-20T09:12:48;25.42;;;11.75;;
49029;SDS011;43337;52.070;4.508;2022-11-20T09:15:14;24.48;;;11.88;;
49029;SDS011;43337;52.070;4.508;2022-11-20T09:17:40;27.60;;;13.13;;
49029;SDS011;43337;52.070;4.508;2022-11-20T09:20:05;25.40;;;11.50;;
49029;SDS011;43337;52.070;4.508;2022-11-20T09:22:31;24.38;;;11.43;;
49029;SDS011;43337;52.070;4.508;2022-11-20T09:24:56;28.55;;;12.57;;
49029;SDS011;43337;52.070;4.508;2022-11-20T09:27:21;27.25;;;11.93;;
49029;SDS011;43337;52.070;4.508;2022-11-20T09:29:47;25.00;;;11.80;;
49029;SDS011;43337;52.070;4.508;2022-11-20T09:32:12;26.00;;;11.32;;
49029;SDS011;43337;52.070;4.508;2022-11-20T09:34:37;27.23;;;11.77;;
49029;SDS011;43337;52.070;4.508;2022-11-20T09:37:03;27.95;;;12.52;;
49029;SDS011;43337;52.070;4.508;2022-11-20T09:39:28;31.08;;;14.00;;
49029;SDS011;43337;52.070;4.508;2022-11-20T09:55:37;25.67;;;12.18;;
49029;SDS011;43337;52.070;4.508;2022-11-20T09:58:05;28.73;;;13.30;;
49029;SDS011;43337;52.070;4.508;2022-11-20T10:00:35;30.38;;;13.93;;
49029;SDS011;43337;52.070;4.508;2022-11-20T10:03:03;30.48;;;13.10;;
49029;SDS011;43337;52.070;4.508;2022-11-20T10:10:50;30.30;;;13.70;;
49029;SDS011;43337;52.070;4.508;2022-11-20T10:13:24;30.85;;;14.77;;
49029;SDS011;43337;52.070;4.508;2022-11-20T10:16:15;30.33;;;12.95;;
49029;SDS011;43337;52.070;4.508;2022-11-20T10:19:13;29.50;;;12.90;;
49029;SDS011;43337;52.070;4.508;2022-11-20T10:25:13;30.33;;;13.50;;
49029;SDS011;43337;52.070;4.508;2022-11-20T10:30:28;31.35;;;13.93;;
49029;SDS011;43337;52.070;4.508;2022-11-20T10:32:57;33.95;;;13.65;;
49029;SDS011;43337;52.070;4.508;2022-11-20T10:35:34;33.53;;;14.25;;
49029;SDS011;43337;52.070;4.508;2022-11-20T10:38:07;31.17;;;14.07;;
49029;SDS011;43337;52.070;4.508;2022-11-20T10:40:40;31.25;;;14.43;;
49029;SDS011;43337;52.070;4.508;2022-11-20T10:43:09;34.10;;;15.45;;
49029;SDS011;43337;52.070;4.508;2022-11-20T10:45:43;32.42;;;14.68;;
49029;SDS011;43337;52.070;4.508;2022-11-20T10:48:27;35.65;;;15.85;;
49029;SDS011;43337;52.070;4.508;2022-11-20T10:56:52;30.90;;;14.60;;
49029;SDS011;43337;52.070;4.508;2022-11-20T11:02:15;39.53;;;16.77;;
49029;SDS011;43337;52.070;4.508;2022-11-20T11:04:52;31.45;;;15.75;;
49029;SDS011;43337;52.070;4.508;2022-11-20T11:07:27;32.10;;;15.43;;
49029;SDS011;43337;52.070;4.508;2022-11-20T11:09:59;36.92;;;17.02;;
49029;SDS011;43337;52.070;4.508;2022-11-20T11:12:25;41.30;;;16.83;;
49029;SDS011;43337;52.070;4.508;2022-11-20T11:14:54;36.17;;;16.48;;
49029;SDS011;43337;52.070;4.508;2022-11-20T11:20:01;39.80;;;17.35;;
49029;SDS011;43337;52.070;4.508;2022-11-20T11:22:31;36.80;;;16.58;;
49029;SDS011;43337;52.070;4.508;2022-11-20T11:24:59;45.92;;;17.35;;
49029;SDS011;43337;52.070;4.508;2022-11-20T11:27:25;43.58;;;18.38;;
49029;SDS011;43337;52.070;4.508;2022-11-20T11:30:00;45.55;;;18.92;;
49029;SDS011;43337;52.070;4.508;2022-11-20T11:32:36;39.50;;;16.90;;
49029;SDS011;43337;52.070;4.508;2022-11-20T11:35:02;45.78;;;18.77;;
49029;SDS011;43337;52.070;4.508;2022-11-20T11:37:33;41.25;;;18.35;;
49029;SDS011;43337;52.070;4.508;2022-11-20T11:40:01;42.90;;;18.27;;
49029;SDS011;43337;52.070;4.508;2022-11-20T11:42:29;45.35;;;18.00;;
49029;SDS011;43337;52.070;4.508;2022-11-20T11:44:55;42.63;;;17.33;;
49029;SDS011;43337;52.070;4.508;2022-11-20T11:50:26;41.78;;;16.70;;
49029;SDS011;43337;52.070;4.508;2022-11-20T11:52:58;36.50;;;15.52;;
49029;SDS011;43337;52.070;4.508;2022-11-20T11:55:32;45.28;;;17.52;;
49029;SDS011;43337;52.070;4.508;2022-11-20T12:00:57;45.55;;;18.50;;
49029;SDS011;43337;52.070;4.508;2022-11-20T12:03:29;38.85;;;18.00;;
49029;SDS011;43337;52.070;4.508;2022-11-20T12:06:01;43.95;;;18.45;;
49029;SDS011;43337;52.070;4.508;2022-11-20T12:08:41;43.08;;;18.27;;
49029;SDS011;43337;52.070;4.508;2022-11-20T12:11:24;37.03;;;18.58;;
49029;SDS011;43337;52.070;4.508;2022-11-20T12:14:00;40.90;;;17.55;;
49029;SDS011;43337;52.070;4.508;2022-11-20T12:16:40;42.65;;;17.67;;
49029;SDS011;43337;52.070;4.508;2022-11-20T12:19:12;39.65;;;17.73;;
49029;SDS011;43337;52.070;4.508;2022-11-20T12:29:57;37.53;;;16.63;;
49029;SDS011;43337;52.070;4.508;2022-11-20T12:47:23;43.30;;;17.73;;
49029;SDS011;43337;52.070;4.508;2022-11-20T12:50:08;49.17;;;20.63;;
49029;SDS011;43337;52.070;4.508;2022-11-20T12:55:21;47.22;;;20.58;;
49029;SDS011;43337;52.070;4.508;2022-11-20T13:00:27;50.35;;;21.05;;
49029;SDS011;43337;52.070;4.508;2022-11-20T13:05:55;49.72;;;19.90;;
49029;SDS011;43337;52.070;4.508;2022-11-20T13:08:34;51.63;;;19.25;;
49029;SDS011;43337;52.070;4.508;2022-11-20T13:11:09;58.53;;;21.15;;
49029;SDS011;43337;52.070;4.508;2022-11-20T13:16:40;57.38;;;21.60;;
49029;SDS011;43337;52.070;4.508;2022-11-20T13:19:24;61.00;;;23.17;;
49029;SDS011;43337;52.070;4.508;2022-11-20T13:21:51;61.78;;;23.50;;
49029;SDS011;43337;52.070;4.508;2022-11-20T13:24:21;61.75;;;21.95;;
49029;SDS011;43337;52.070;4.508;2022-11-20T13:27:01;67.70;;;21.57;;
49029;SDS011;43337;52.070;4.508;2022-11-20T13:29:33;69.75;;;24.98;;
49029;SDS011;43337;52.070;4.508;2022-11-20T13:32:32;63.15;;;21.95;;
49029;SDS011;43337;52.070;4.508;2022-11-20T13:34:56;70.78;;;24.17;;
49029;SDS011;43337;52.070;4.508;2022-11-20T13:37:26;64.05;;;23.42;;
49029;SDS011;43337;52.070;4.508;2022-11-20T13:39:52;67.38;;;24.88;;
49029;SDS011;43337;52.070;4.508;2022-11-20T13:42:23;69.38;;;24.70;;
49029;SDS011;43337;52.070;4.508;2022-11-20T13:44:54;67.72;;;22.80;;
49029;SDS011;43337;52.070;4.508;2022-11-20T13:47:26;74.95;;;26.80;;
49029;SDS011;43337;52.070;4.508;2022-11-20T13:49:53;70.03;;;24.30;;
49029;SDS011;43337;52.070;4.508;2022-11-20T13:55:32;66.25;;;24.00;;
49029;SDS011;43337;52.070;4.508;2022-11-20T14:00:45;63.75;;;23.67;;
49029;SDS011;43337;52.070;4.508;2022-11-20T14:03:17;75.13;;;23.90;;
49029;SDS011;43337;52.070;4.508;2022-11-20T14:05:55;75.22;;;24.30;;
49029;SDS011;43337;52.070;4.508;2022-11-20T14:08:39;68.68;;;23.92;;
49029;SDS011;43337;52.070;4.508;2022-11-20T14:11:14;73.55;;;26.10;;
49029;SDS011;43337;52.070;4.508;2022-11-20T14:13:39;78.13;;;26.40;;
49029;SDS011;43337;52.070;4.508;2022-11-20T14:16:19;78.97;;;27.80;;
49029;SDS011;43337;52.070;4.508;2022-11-20T14:18:45;79.50;;;25.45;;
49029;SDS011;43337;52.070;4.508;2022-11-20T14:21:10;77.93;;;24.77;;
49029;SDS011;43337;52.070;4.508;2022-11-20T14:23:36;79.43;;;25.13;;
49029;SDS011;43337;52.070;4.508;2022-11-20T14:26:01;68.40;;;25.55;;
49029;SDS011;43337;52.070;4.508;2022-11-20T14:28:28;72.70;;;22.83;;
49029;SDS011;43337;52.070;4.508;2022-11-20T14:30:55;70.80;;;24.42;;
49029;SDS011;43337;52.070;4.508;2022-11-20T14:33:21;79.72;;;26.27;;
49029;SDS011;43337;52.070;4.508;2022-11-20T14:35:56;78.22;;;25.30;;
49029;SDS011;43337;52.070;4.508;2022-11-20T14:38:29;74.75;;;26.52;;
49029;SDS011;43337;52.070;4.508;2022-11-20T14:41:16;70.78;;;26.38;;
49029;SDS011;43337;52.070;4.508;2022-11-20T14:43:47;78.57;;;25.35;;
49029;SDS011;43337;52.070;4.508;2022-11-20T14:46:24;77.18;;;27.60;;
49029;SDS011;43337;52.070;4.508;2022-11-20T14:48:57;85.78;;;25.85;;
49029;SDS011;43337;52.070;4.508;2022-11-20T14:51:35;73.47;;;24.90;;
49029;SDS011;43337;52.070;4.508;2022-11-20T14:54:16;64.65;;;23.40;;
49029;SDS011;43337;52.070;4.508;2022-11-20T14:56:56;74.82;;;24.17;;
49029;SDS011;43337;52.070;4.508;2022-11-20T14:59:27;85.43;;;25.23;;
49029;SDS011;43337;52.070;4.508;2022-11-20T15:02:02;70.28;;;21.95;;
49029;SDS011;43337;52.070;4.508;2022-11-20T15:04:30;79.95;;;25.50;;
49029;SDS011;43337;52.070;4.508;2022-11-20T15:06:57;81.78;;;27.65;;
49029;SDS011;43337;52.070;4.508;2022-11-20T15:09:28;80.53;;;23.83;;
49029;SDS011;43337;52.070;4.508;2022-11-20T15:11:57;76.30;;;25.38;;
49029;SDS011;43337;52.070;4.508;2022-11-20T15:14:26;79.68;;;25.38;;
49029;SDS011;43337;52.070;4.508;2022-11-20T15:16:53;83.80;;;26.52;;
49029;SDS011;43337;52.070;4.508;2022-11-20T15:19:20;83.25;;;26.83;;
49029;SDS011;43337;52.070;4.508;2022-11-20T15:21:47;82.95;;;26.13;;
49029;SDS011;43337;52.070;4.508;2022-11-20T15:24:12;82.50;;;28.33;;
49029;SDS011;43337;52.070;4.508;2022-11-20T15:26:38;89.15;;;27.20;;
49029;SDS011;43337;52.070;4.508;2022-11-20T15:29:09;87.18;;;28.67;;
49029;SDS011;43337;52.070;4.508;2022-11-20T15:31:37;76.50;;;26.13;;
49029;SDS011;43337;52.070;4.508;2022-11-20T15:34:08;82.72;;;27.10;;
49029;SDS011;43337;52.070;4.508;2022-11-20T15:36:36;87.50;;;27.90;;
49029;SDS011;43337;52.070;4.508;2022-11-20T15:39:02;68.57;;;24.42;;
49029;SDS011;43337;52.070;4.508;2022-11-20T15:41:27;82.53;;;26.80;;
49029;SDS011;43337;52.070;4.508;2022-11-20T15:43:54;79.40;;;25.13;;
49029;SDS011;43337;52.070;4.508;2022-11-20T15:46:23;75.22;;;24.95;;
49029;SDS011;43337;52.070;4.508;2022-11-20T15:48:58;83.15;;;24.83;;
49029;SDS011;43337;52.070;4.508;2022-11-20T15:51:27;75.63;;;26.25;;
49029;SDS011;43337;52.070;4.508;2022-11-20T15:53:56;84.78;;;27.65;;
49029;SDS011;43337;52.070;4.508;2022-11-20T15:56:21;76.53;;;25.40;;
49029;SDS011;43337;52.070;4.508;2022-11-20T15:58:47;77.15;;;26.58;;
49029;SDS011;43337;52.070;4.508;2022-11-20T16:01:14;76.07;;;26.52;;
49029;SDS011;43337;52.070;4.508;2022-11-20T16:03:41;69.05;;;24.67;;